Terminal Aerodrome Forecast
Issued by NWS

Home | Current Version | Previous Version | Text Only | Print | Product List | Glossary On
Versions: 1 2 3 4 5 6 7 8 9 10 11 12 13
000
FTUS45 KRIW 171536 AAA
TAFBPI
TAF AMD
KBPI 171536Z 1716/1812 VRB06KT 3SM BR SCT020 OVC050
      TEMPO 1716/1717 1/4SM FG BKN020
     FM171800 31022G32KT P6SM VCSH BKN050
     FM180300 35010KT P6SM SCT050 BKN080
     FM180700 34007KT P6SM SCT100=

USA.gov is the U.S. government's official web portal to all federal, state and local government web resources and services.